Time;durP1;ratioP1;P1;durP2;ratioP2;P2;SDS_P1;SDS_P2;PMS_P1;PMS_P2;Temp;Humidity;BMP_temperature;BMP_pressure;BME280_temperature;BME280_humidity;BME280_pressure;Samples;Min_cycle;Max_cycle;Signal;HPM_P1;HPM_P2
2023/07/24 00:00:21;;;;;;;10.80;8.95;;;;;;;;;;5092065;28;20283;-65
2023/07/24 00:02:48;;;;;;;9.90;8.48;;;;;;;;;;5092569;28;20244;-66
2023/07/24 00:05:14;;;;;;;9.35;8.45;;;;;;;;;;5091979;28;20244;-65
2023/07/24 00:07:42;;;;;;;8.50;7.68;;;;;;;;;;5091666;28;20257;-65
2023/07/24 00:10:08;;;;;;;9.38;8.57;;;;;;;;;;5091886;28;20206;-66
2023/07/24 00:12:35;;;;;;;8.63;7.85;;;;;;;;;;5091516;28;20604;-66
2023/07/24 00:15:01;;;;;;;8.68;7.70;;;;;;;;;;5092160;28;20209;-64
2023/07/24 00:17:28;;;;;;;10.23;9.35;;;;;;;;;;5091528;28;20233;-67
2023/07/24 00:19:54;;;;;;;10.45;9.30;;;;;;;;;;5091532;28;20237;-66
2023/07/24 00:22:21;;;;;;;9.75;8.13;;;;;;;;;;5091408;28;20255;-66
2023/07/24 00:24:49;;;;;;;10.88;9.45;;;;;;;;;;5092794;28;20210;-67
2023/07/24 00:27:15;;;;;;;9.15;7.75;;;;;;;;;;5091526;28;20699;-66
2023/07/24 00:29:41;;;;;;;9.07;8.20;;;;;;;;;;5091822;28;20218;-67
2023/07/24 00:32:08;;;;;;;11.63;8.13;;;;;;;;;;5092799;28;20205;-66
2023/07/24 00:34:35;;;;;;;8.65;7.93;;;;;;;;;;5092066;28;20259;-66
2023/07/24 00:37:01;;;;;;;8.27;7.50;;;;;;;;;;5090641;28;21232;-66
2023/07/24 00:39:29;;;;;;;9.25;8.45;;;;;;;;;;5091864;28;20652;-66
2023/07/24 00:41:57;;;;;;;9.52;8.38;;;;;;;;;;5091933;28;20580;-67
2023/07/24 00:44:23;;;;;;;8.98;7.78;;;;;;;;;;5090622;28;20703;-66
2023/07/24 00:46:50;;;;;;;9.90;9.00;;;;;;;;;;5091632;28;20626;-66
2023/07/24 00:49:17;;;;;;;9.55;8.55;;;;;;;;;;5090861;28;20652;-66
2023/07/24 00:51:44;;;;;;;9.07;8.15;;;;;;;;;;5091497;28;20275;-65
2023/07/24 00:54:12;;;;;;;10.70;7.50;;;;;;;;;;5090919;28;20672;-67
2023/07/24 00:56:39;;;;;;;8.63;7.82;;;;;;;;;;5090185;28;20279;-66
2023/07/24 00:59:07;;;;;;;8.88;8.18;;;;;;;;;;5090226;28;20292;-66
2023/07/24 01:01:33;;;;;;;8.95;8.07;;;;;;;;;;5090158;28;20490;-65
2023/07/24 01:03:59;;;;;;;9.13;8.38;;;;;;;;;;5089957;28;20255;-65
2023/07/24 01:06:26;;;;;;;13.70;8.70;;;;;;;;;;5089381;28;20204;-65
2023/07/24 01:08:53;;;;;;;9.57;8.70;;;;;;;;;;5089231;28;20214;-65
2023/07/24 01:11:20;;;;;;;10.85;7.70;;;;;;;;;;5089450;28;20225;-66
2023/07/24 01:13:49;;;;;;;9.95;7.78;;;;;;;;;;5089385;28;20636;-66
2023/07/24 01:16:19;;;;;;;8.73;7.88;;;;;;;;;;5090706;28;20205;-65
2023/07/24 01:18:46;;;;;;;10.68;8.38;;;;;;;;;;5090301;28;20225;-66
2023/07/24 01:21:13;;;;;;;9.25;8.18;;;;;;;;;;5090267;28;20206;-65
2023/07/24 01:23:45;;;;;;;8.98;8.07;;;;;;;;;;5089480;28;20251;-65
2023/07/24 01:26:14;;;;;;;10.02;9.02;;;;;;;;;;5090454;28;20632;-65
2023/07/24 01:28:40;;;;;;;9.98;8.60;;;;;;;;;;5089427;28;20646;-66
2023/07/24 01:31:06;;;;;;;9.18;8.27;;;;;;;;;;5090091;28;20235;-65
2023/07/24 01:33:35;;;;;;;9.30;8.07;;;;;;;;;;5089833;28;20201;-66
2023/07/24 01:36:02;;;;;;;10.02;9.05;;;;;;;;;;5103088;28;20209;-66
2023/07/24 01:38:31;;;;;;;9.32;8.52;;;;;;;;;;5091097;28;20753;-65
2023/07/24 01:40:58;;;;;;;9.95;9.00;;;;;;;;;;5090280;28;20251;-66
2023/07/24 01:43:27;;;;;;;11.63;9.27;;;;;;;;;;5090347;28;20258;-66
2023/07/24 01:45:53;;;;;;;9.20;8.30;;;;;;;;;;5090516;28;20670;-67
2023/07/24 01:48:20;;;;;;;8.05;7.25;;;;;;;;;;5090192;28;20256;-67
2023/07/24 01:50:46;;;;;;;13.23;8.85;;;;;;;;;;5090708;28;20205;-67
2023/07/24 01:53:13;;;;;;;11.23;8.43;;;;;;;;;;5090286;28;20225;-66
2023/07/24 01:55:39;;;;;;;8.93;7.93;;;;;;;;;;5090123;28;20671;-66
2023/07/24 01:58:06;;;;;;;9.18;8.30;;;;;;;;;;5090549;28;20204;-67
2023/07/24 02:00:33;;;;;;;9.23;8.38;;;;;;;;;;5089967;28;20194;-66
2023/07/24 02:03:00;;;;;;;8.65;7.82;;;;;;;;;;5090253;28;20634;-66
2023/07/24 02:05:27;;;;;;;9.25;8.35;;;;;;;;;;5090194;28;20194;-66
2023/07/24 02:07:53;;;;;;;8.52;7.93;;;;;;;;;;5092352;28;20225;-67
2023/07/24 02:10:19;;;;;;;10.35;8.00;;;;;;;;;;5093511;28;20937;-67
2023/07/24 02:12:46;;;;;;;8.90;8.05;;;;;;;;;;5104151;28;20240;-66
2023/07/24 02:15:12;;;;;;;11.70;8.13;;;;;;;;;;5112609;27;20581;-67
2023/07/24 02:17:42;;;;;;;8.48;7.68;;;;;;;;;;5113402;28;20229;-66
2023/07/24 02:20:09;;;;;;;8.48;7.82;;;;;;;;;;5095522;28;20229;-68
2023/07/24 02:22:35;;;;;;;8.98;8.07;;;;;;;;;;5093946;28;20532;-67
2023/07/24 02:25:01;;;;;;;9.38;8.45;;;;;;;;;;5093186;28;20209;-67
2023/07/24 02:27:30;;;;;;;8.82;8.02;;;;;;;;;;5093982;28;20206;-67
2023/07/24 02:29:57;;;;;;;9.18;8.30;;;;;;;;;;5093203;28;20224;-66
2023/07/24 02:32:24;;;;;;;9.43;7.90;;;;;;;;;;5105482;28;20222;-67
2023/07/24 02:34:52;;;;;;;7.88;7.18;;;;;;;;;;5112673;28;20693;-67
2023/07/24 02:37:18;;;;;;;9.35;8.52;;;;;;;;;;5100840;28;20225;-67
2023/07/24 02:39:45;;;;;;;7.95;7.25;;;;;;;;;;5093462;28;20259;-65
2023/07/24 02:42:11;;;;;;;9.55;8.68;;;;;;;;;;5093967;28;20240;-66
2023/07/24 02:44:38;;;;;;;8.13;7.53;;;;;;;;;;5094592;28;20267;-66
2023/07/24 02:47:04;;;;;;;7.90;7.30;;;;;;;;;;5094109;28;20278;-66
2023/07/24 02:49:31;;;;;;;7.78;7.07;;;;;;;;;;5092837;28;20225;-67
2023/07/24 02:51:59;;;;;;;8.90;8.20;;;;;;;;;;5093447;28;20604;-66
2023/07/24 02:54:26;;;;;;;8.23;7.50;;;;;;;;;;5092992;28;20229;-67
2023/07/24 02:56:52;;;;;;;8.05;7.47;;;;;;;;;;5092639;28;20660;-65
2023/07/24 02:59:19;;;;;;;7.97;7.22;;;;;;;;;;5092219;28;20201;-66
2023/07/24 03:01:45;;;;;;;8.48;7.60;;;;;;;;;;5092109;28;20201;-65
2023/07/24 03:04:12;;;;;;;7.88;7.28;;;;;;;;;;5092267;28;20194;-66
2023/07/24 03:06:39;;;;;;;8.70;7.82;;;;;;;;;;5092632;28;20194;-67
2023/07/24 03:09:07;;;;;;;8.10;7.38;;;;;;;;;;5091053;28;20213;-66
2023/07/24 03:11:34;;;;;;;8.77;8.07;;;;;;;;;;5092157;28;20197;-65
2023/07/24 03:14:00;;;;;;;8.27;7.47;;;;;;;;;;5092486;28;20694;-65
2023/07/24 03:16:27;;;;;;;11.02;8.25;;;;;;;;;;5093077;28;20672;-66
2023/07/24 03:18:53;;;;;;;13.98;8.90;;;;;;;;;;5091641;28;20647;-66
2023/07/24 03:21:20;;;;;;;10.20;9.25;;;;;;;;;;5092787;28;20669;-66
2023/07/24 03:23:46;;;;;;;8.82;8.13;;;;;;;;;;5092282;28;20229;-64
2023/07/24 03:26:14;;;;;;;8.55;7.75;;;;;;;;;;5092256;28;20202;-66
2023/07/24 03:28:40;;;;;;;8.85;8.05;;;;;;;;;;5080315;28;20256;-66
2023/07/24 03:31:07;;;;;;;9.90;8.23;;;;;;;;;;5093399;28;20248;-62
2023/07/24 03:33:33;;;;;;;10.02;9.13;;;;;;;;;;5093976;28;20271;-66
2023/07/24 03:36:00;;;;;;;11.02;7.60;;;;;;;;;;5094034;28;20229;-65
2023/07/24 03:38:26;;;;;;;9.30;7.47;;;;;;;;;;5093190;28;20750;-66
2023/07/24 03:40:52;;;;;;;8.88;7.85;;;;;;;;;;5093277;28;20233;-65
2023/07/24 03:43:20;;;;;;;11.13;8.48;;;;;;;;;;5092612;28;20210;-67
2023/07/24 03:45:47;;;;;;;9.95;7.50;;;;;;;;;;5093002;28;20237;-66
2023/07/24 03:48:13;;;;;;;8.60;7.60;;;;;;;;;;5092622;28;20202;-66
2023/07/24 03:50:41;;;;;;;7.72;7.13;;;;;;;;;;5092685;28;20222;-66
2023/07/24 03:53:07;;;;;;;9.02;8.25;;;;;;;;;;5092278;28;20271;-67
2023/07/24 03:55:34;;;;;;;8.68;7.88;;;;;;;;;;5092238;28;20673;-67
2023/07/24 03:58:00;;;;;;;8.90;8.10;;;;;;;;;;5092094;28;20706;-65
2023/07/24 04:00:28;;;;;;;8.73;7.93;;;;;;;;;;5092055;28;20228;-65
2023/07/24 04:02:54;;;;;;;8.98;8.27;;;;;;;;;;5092402;28;20220;-66
2023/07/24 04:05:21;;;;;;;8.77;7.97;;;;;;;;;;5092998;28;20236;-65
2023/07/24 04:07:47;;;;;;;12.93;7.85;;;;;;;;;;5093134;28;20695;-67
2023/07/24 04:10:14;;;;;;;11.35;7.97;;;;;;;;;;5093139;28;20249;-66
2023/07/24 04:12:40;;;;;;;9.40;8.50;;;;;;;;;;5092848;28;20682;-66
2023/07/24 04:15:07;;;;;;;9.90;8.38;;;;;;;;;;5093534;28;20286;-67
2023/07/24 04:17:35;;;;;;;9.77;8.57;;;;;;;;;;5092695;28;20262;-66
2023/07/24 04:20:03;;;;;;;11.73;8.45;;;;;;;;;;5093152;28;20217;-65
2023/07/24 04:22:29;;;;;;;11.73;9.23;;;;;;;;;;5092577;28;20641;-66
2023/07/24 04:24:55;;;;;;;11.13;8.60;;;;;;;;;;5093220;28;20233;-69
2023/07/24 04:27:22;;;;;;;10.57;9.48;;;;;;;;;;5092377;28;20266;-66
2023/07/24 04:29:48;;;;;;;9.23;8.32;;;;;;;;;;5092084;28;20256;-66
2023/07/24 04:32:15;;;;;;;8.98;8.18;;;;;;;;;;5091141;28;20209;-65
2023/07/24 04:34:43;;;;;;;12.38;8.88;;;;;;;;;;5092171;28;20747;-66
2023/07/24 04:37:09;;;;;;;9.77;8.38;;;;;;;;;;5091986;28;20202;-65
2023/07/24 04:39:36;;;;;;;13.77;8.73;;;;;;;;;;5091653;28;20279;-67
2023/07/24 04:42:03;;;;;;;13.30;8.48;;;;;;;;;;5091457;28;20229;-65
2023/07/24 04:44:29;;;;;;;9.93;8.05;;;;;;;;;;5091002;28;20690;-67
2023/07/24 04:46:56;;;;;;;10.35;9.25;;;;;;;;;;5091525;28;20201;-67
2023/07/24 04:49:23;;;;;;;9.57;8.77;;;;;;;;;;5091396;28;20309;-66
2023/07/24 04:51:51;;;;;;;12.27;8.98;;;;;;;;;;5091400;28;20221;-68
2023/07/24 04:54:17;;;;;;;9.60;8.20;;;;;;;;;;5091337;28;20255;-66
2023/07/24 04:56:44;;;;;;;8.75;7.90;;;;;;;;;;5091443;28;20198;-66
2023/07/24 04:59:10;;;;;;;8.10;7.28;;;;;;;;;;5090462;28;20226;-64
2023/07/24 05:01:37;;;;;;;12.88;8.70;;;;;;;28.77;nan;95373.97;5089831;28;20287;-65
2023/07/24 05:04:03;;;;;;;13.07;8.32;;;;;;;;;;5090416;28;20228;-65
2023/07/24 05:06:30;;;;;;;11.48;8.73;;;;;;;;;;5089682;28;20233;-65
2023/07/24 05:08:58;;;;;;;9.80;8.80;;;;;;;;;;5089019;28;20201;-65
2023/07/24 05:11:24;;;;;;;8.60;7.70;;;;;;;;;;5089516;28;20275;-65
2023/07/24 05:13:50;;;;;;;10.13;9.13;;;;;;;;;;5089666;28;20229;-66
2023/07/24 05:16:17;;;;;;;9.52;8.82;;;;;;;;;;5089907;28;20240;-67
2023/07/24 05:18:43;;;;;;;12.38;10.13;;;;;;;;;;5091490;28;20288;-67
2023/07/24 05:21:10;;;;;;;11.10;9.20;;;;;;;;;;5090120;28;20229;-66
2023/07/24 05:23:36;;;;;;;11.70;10.63;;;;;;;;;;5089270;28;20221;-66
2023/07/24 05:26:04;;;;;;;13.50;12.13;;;;;;;;;;5089199;28;20747;-66
2023/07/24 05:28:31;;;;;;;17.77;10.48;;;;;;;;;;5089708;28;20206;-67
2023/07/24 05:31:00;;;;;;;11.93;10.23;;;;;;;;;;5089797;28;20311;-66
2023/07/24 05:33:27;;;;;;;11.05;9.77;;;;;;;;;;5089440;28;20198;-67
2023/07/24 05:35:58;;;;;;;15.80;10.32;;;;;;;;;;5089880;28;20679;-67
2023/07/24 05:38:24;;;;;;;12.85;10.00;;;;;;;;;;5090113;28;20264;-66
2023/07/24 05:40:55;;;;;;;10.63;9.63;;;;;;;;;;5090184;28;20255;-66
2023/07/24 05:43:22;;;;;;;12.38;9.95;;;;;;;;;;5090280;28;20212;-67
2023/07/24 05:45:49;;;;;;;14.45;10.50;;;;;;;;;;5091460;28;20262;-67
2023/07/24 05:48:15;;;;;;;15.50;10.85;;;;;;;;;;5091071;28;20698;-66
2023/07/24 05:50:42;;;;;;;15.75;11.00;;;;;;;;;;5090624;28;20229;-67
2023/07/24 05:53:08;;;;;;;14.70;10.88;;;;;;;;;;5090850;28;20264;-66
2023/07/24 05:55:34;;;;;;;12.70;10.38;;;;;;;;;;5090845;28;20329;-66
2023/07/24 05:58:01;;;;;;;13.52;10.60;;;;;;;;;;5090777;28;20234;-66
2023/07/24 06:00:29;;;;;;;16.90;10.27;;;;;;;;;;5090577;28;20241;-66
2023/07/24 06:02:55;;;;;;;18.25;10.43;;;;;;;;;;5090077;28;20267;-67
2023/07/24 06:05:22;;;;;;;15.13;10.70;;;;;;;;;;5090823;28;20226;-67
2023/07/24 06:07:48;;;;;;;17.13;11.20;;;;;;;;;;5090087;28;20225;-67
2023/07/24 06:10:15;;;;;;;12.38;10.27;;;;;;;;;;5090881;28;20217;-67
2023/07/24 06:12:41;;;;;;;20.40;11.00;;;;;;;;;;5090465;28;20213;-67
2023/07/24 06:15:08;;;;;;;13.57;10.82;;;;;;;;;;5091811;28;20259;-68
2023/07/24 06:17:36;;;;;;;14.23;11.25;;;;;;;;;;5090398;28;20201;-67
2023/07/24 06:20:02;;;;;;;14.00;9.85;;;;;;;;;;5090952;28;20193;-67
2023/07/24 06:22:29;;;;;;;13.27;10.27;;;;;;;;;;5090707;28;20202;-68
2023/07/24 06:24:55;;;;;;;10.57;9.70;;;;;;;;;;5091345;28;20202;-68
2023/07/24 06:27:22;;;;;;;14.65;10.13;;;;;;;;;;5090425;28;20206;-67
2023/07/24 06:29:48;;;;;;;10.55;9.55;;;;;;;;;;5091133;28;20275;-68
2023/07/24 06:32:14;;;;;;;11.07;9.98;;;;;;;;;;5090410;28;20206;-68
2023/07/24 06:34:42;;;;;;;11.27;9.32;;;;;;;;;;5090726;28;20683;-67
2023/07/24 06:37:09;;;;;;;11.95;9.52;;;;;;;47.50;nan;95300.66;5090223;28;20664;-68
2023/07/24 06:39:36;;;;;;;10.82;9.15;;;;;;;48.08;nan;95298.94;5090271;28;20229;-67
2023/07/24 06:42:02;;;;;;;13.60;9.65;;;;;;;48.95;nan;95299.00;5089856;28;20233;-67
2023/07/24 06:44:29;;;;;;;10.77;9.55;;;;;;;49.69;nan;95302.97;5089461;28;20743;-67
2023/07/24 06:46:56;;;;;;;11.15;10.20;;;;;;;50.15;nan;95294.19;5089742;28;20205;-66
2023/07/24 06:49:22;;;;;;;10.88;9.70;;;;;;;50.18;nan;95294.41;5089636;28;20704;-67
2023/07/24 06:51:50;;;;;;;10.32;9.15;;;;;;;50.44;nan;95289.38;5090101;28;20221;-69
2023/07/24 06:54:17;;;;;;;10.25;8.88;;;;;;;50.88;nan;95296.97;5090804;28;20224;-69
2023/07/24 06:56:44;;;;;;;12.65;9.40;;;;;;;50.84;nan;95295.16;5093638;28;20278;-69
2023/07/24 06:59:10;;;;;;;11.80;9.65;;;;;;;51.08;nan;95300.41;5086138;28;20256;-67
2023/07/24 07:01:37;;;;;;;12.38;10.10;;;;;;;51.27;nan;95290.28;5091962;28;20224;-68
2023/07/24 07:04:03;;;;;;;10.02;9.23;;;;;;;51.74;nan;95285.50;5091617;28;20317;-67
2023/07/24 07:06:30;;;;;;;10.35;9.35;;;;;;;51.65;nan;95288.94;5091863;28;20205;-68
2023/07/24 07:08:58;;;;;;;13.27;10.00;;;;;;;51.76;nan;95296.81;5092148;28;20357;-69
2023/07/24 07:11:25;;;;;;;18.23;10.85;;;;;;;51.82;nan;95290.19;5091982;28;20252;-68
2023/07/24 07:13:51;;;;;;;11.50;10.35;;;;;;;51.32;nan;95301.03;5091601;28;20262;-69
2023/07/24 07:16:18;;;;;;;16.83;9.60;;;;;;;51.32;nan;95291.00;5091759;28;20204;-68
2023/07/24 07:18:45;;;;;;;14.90;9.75;;;;;;;;;;5090932;28;20201;-68
2023/07/24 07:21:12;;;;;;;12.75;9.65;;;;;;;52.22;nan;95285.75;5091217;28;20237;-68
2023/07/24 07:23:38;;;;;;;11.95;10.00;;;;;;;51.91;nan;95280.22;5092058;28;20626;-68
2023/07/24 07:26:06;;;;;;;13.95;9.57;;;;;;;51.62;nan;95276.00;5091736;28;20714;-69
2023/07/24 07:28:33;;;;;;;10.15;9.15;;;;;;;;;;5091098;28;20223;-67
2023/07/24 07:30:59;;;;;;;11.88;9.15;;;;;;;51.30;nan;95278.84;5093081;28;20249;-68
2023/07/24 07:33:26;;;;;;;13.50;10.15;;;;;;;50.93;nan;95277.97;5093610;28;20197;-68
2023/07/24 07:35:52;;;;;;;10.68;9.65;;;;;;;;;;5094711;28;20201;-69
2023/07/24 07:38:19;;;;;;;13.65;9.18;;;;;;;;;;5093556;28;20233;-68
2023/07/24 07:40:45;;;;;;;15.07;9.27;;;;;;;;;;5092966;28;20197;-69
2023/07/24 07:43:13;;;;;;;11.43;10.30;;;;;;;;;;5092724;28;20209;-69
2023/07/24 07:45:40;;;;;;;9.98;8.95;;;;;;;;;;5092185;28;20205;-68
2023/07/24 07:48:06;;;;;;;11.13;10.15;;;;;;;;;;5092220;28;20209;-70
2023/07/24 07:50:33;;;;;;;18.40;14.27;;;;;;;;;;5092636;28;20221;-69
2023/07/24 07:52:59;;;;;;;13.73;10.20;;;;;;;53.24;nan;95262.09;5092681;28;20278;-69
2023/07/24 07:55:26;;;;;;;10.98;10.20;;;;;;;;;;5092112;28;20683;-68
2023/07/24 07:57:52;;;;;;;11.45;9.95;;;;;;;;;;5092398;28;20221;-68
2023/07/24 08:00:21;;;;;;;10.25;9.40;;;;;;;53.14;nan;95279.53;5091965;28;20201;-69
2023/07/24 08:02:48;;;;;;;9.75;8.80;;;;;;;;;;5092548;28;20207;-69
2023/07/24 08:05:15;;;;;;;10.98;9.70;;;;;;;;;;5091702;28;20262;-68
2023/07/24 08:07:41;;;;;;;9.55;8.95;;;;;;;;;;5092145;28;20594;-69
2023/07/24 08:10:08;;;;;;;9.77;8.73;;;;;;;52.97;nan;95280.25;5091760;28;20257;-69
2023/07/24 08:12:35;;;;;;;11.15;9.90;;;;;;;;;;5091785;28;20229;-69
2023/07/24 08:15:01;;;;;;;10.35;9.40;;;;;;;;;;5091436;28;20650;-68
2023/07/24 08:17:30;;;;;;;14.93;9.25;;;;;;;;;;5092196;28;20254;-68
2023/07/24 08:19:57;;;;;;;10.77;9.82;;;;;;;;;;5091354;28;20740;-69
2023/07/24 08:22:23;;;;;;;11.68;10.90;;;;;;;;;;5091797;28;20694;-69
2023/07/24 08:24:51;;;;;;;13.55;10.02;;;;;;;;;;5092123;28;20233;-69
2023/07/24 08:27:17;;;;;;;10.98;9.95;;;;;;;52.20;nan;95245.38;5091608;28;20287;-69
2023/07/24 08:29:44;;;;;;;13.50;9.98;;;;;;;53.13;nan;95215.47;5091969;28;20197;-69
2023/07/24 08:32:11;;;;;;;11.75;10.77;;;;;;;52.72;nan;95223.16;5091428;28;20221;-69
2023/07/24 08:34:39;;;;;;;10.00;8.88;;;;;;;53.29;nan;95232.91;5091864;28;20282;-70
2023/07/24 08:37:06;;;;;;;14.07;9.95;;;;;;;53.06;nan;95222.47;5091775;28;20233;-68
2023/07/24 08:39:32;;;;;;;10.25;9.45;;;;;;;;;;5091432;28;20232;-68
2023/07/24 08:41:59;;;;;;;11.93;10.00;;;;;;;50.23;nan;95226.72;5090907;28;20193;-68
2023/07/24 08:44:30;;;;;;;11.70;10.38;;;;;;;50.02;nan;95220.84;5091660;28;20278;-69
2023/07/24 08:46:58;;;;;;;11.52;10.40;;;;;;;50.31;nan;95222.53;5091358;28;20220;-68
2023/07/24 08:49:26;;;;;;;10.25;9.32;;;;;;;51.35;nan;95208.31;5091655;28;20262;-67
2023/07/24 08:51:55;;;;;;;12.15;10.85;;;;;;;51.69;nan;95208.66;5091671;28;20228;-68
2023/07/24 08:54:22;;;;;;;11.32;10.02;;;;;;;51.41;nan;95196.28;5091528;28;20682;-68
2023/07/24 08:56:50;;;;;;;10.63;9.73;;;;;;;51.51;nan;95203.34;5091274;28;20258;-69
2023/07/24 08:59:17;;;;;;;11.82;10.20;;;;;;;52.13;nan;95206.25;5083453;28;20728;-69
2023/07/24 09:01:44;;;;;;;14.40;10.23;;;;;;;52.21;nan;95202.78;5083376;28;20634;-68
2023/07/24 09:04:11;;;;;;;12.65;11.05;;;;;;;51.50;nan;95202.53;5089430;28;20647;-68
2023/07/24 09:06:38;;;;;;;11.43;10.27;;;;;;;50.57;nan;95214.75;5090094;28;20718;-69
2023/07/24 09:09:15;;;;;;;11.57;10.38;;;;;;;51.12;nan;95199.34;5088454;28;20658;-69
2023/07/24 09:11:50;;;;;;;11.65;10.40;;;;;;;51.62;nan;95196.63;5090593;28;20225;-68
2023/07/24 09:14:24;;;;;;;12.20;10.82;;;;;;;51.01;nan;95200.66;5090891;28;20638;-67
2023/07/24 09:16:52;;;;;;;16.13;10.35;;;;;;;50.91;nan;95192.72;5091267;28;20289;-69
2023/07/24 09:19:19;;;;;;;15.07;10.38;;;;;;;;;;5092454;28;20205;-69
2023/07/24 09:21:46;;;;;;;11.80;10.00;;;;;;;49.67;nan;95197.09;5092705;28;20663;-68
2023/07/24 09:24:15;;;;;;;16.33;10.43;;;;;;;49.41;nan;95185.03;5091559;28;20232;-68
2023/07/24 09:26:50;;;;;;;16.50;10.82;;;;;;;48.93;nan;95188.66;5092381;28;20209;-67
2023/07/24 09:29:18;;;;;;;15.13;11.10;;;;;;;47.88;nan;95185.94;5092173;28;20205;-69
2023/07/24 09:31:45;;;;;;;11.93;10.63;;;;;;;46.71;nan;95173.13;5091264;28;20214;-68
2023/07/24 09:34:18;;;;;;;13.60;10.88;;;;;;;46.07;nan;95181.84;5092144;28;20223;-67
2023/07/24 09:36:45;;;;;;;15.50;11.68;;;;;;;45.06;nan;95177.13;5091036;28;20223;-67
2023/07/24 09:39:13;;;;;;;15.20;11.38;;;;;;;44.20;nan;95168.66;5091373;28;20233;-68
2023/07/24 09:41:41;;;;;;;13.98;10.73;;;;;;;43.72;nan;95163.22;5091062;28;20205;-67
2023/07/24 09:44:08;;;;;;;12.25;10.95;;;;;;;42.92;nan;95179.25;5090930;28;20690;-68
2023/07/24 09:46:34;;;;;;;13.27;11.25;;;;;;;42.09;nan;95157.81;5090145;28;20197;-68
2023/07/24 09:49:02;;;;;;;17.90;10.95;;;;;;;40.95;nan;95153.72;5090305;28;20202;-68
2023/07/24 09:51:31;;;;;;;14.75;11.18;;;;;;;40.10;nan;95156.97;5090208;28;20225;-67
2023/07/24 09:54:01;;;;;;;13.52;9.93;;;;;;;;;;5090337;28;20213;-67
2023/07/24 09:56:30;;;;;;;11.30;10.07;;;;;;;38.09;nan;95158.22;5090262;28;20636;-67
2023/07/24 09:58:57;;;;;;;18.20;11.23;;;;;;;;;;5090818;28;20197;-68
2023/07/24 10:01:26;;;;;;;14.90;11.35;;;;;;;36.59;nan;95155.50;5090454;28;20194;-68
2023/07/24 10:03:53;;;;;;;19.83;10.07;;;;;;;36.16;nan;95147.25;5090734;28;20263;-67
2023/07/24 10:06:20;;;;;;;15.07;10.23;;;;;;;35.87;nan;95153.81;5091013;28;20209;-68
2023/07/24 10:08:47;;;;;;;12.88;10.18;;;;;;;35.53;nan;95141.59;5090187;28;20292;-68
2023/07/24 10:11:14;;;;;;;19.85;11.32;;;;;;;;;;5089620;28;20685;-70
2023/07/24 10:13:43;;;;;;;16.45;10.73;;;;;;;35.22;nan;95144.78;5089855;28;20198;-70
2023/07/24 10:16:10;;;;;;;13.10;10.13;;;;;;;34.87;nan;95141.50;5090286;28;20229;-70
2023/07/24 10:18:44;;;;;;;14.73;10.60;;;;;;;34.70;nan;95136.53;5090492;28;20233;-69
2023/07/24 10:21:11;;;;;;;14.68;11.05;;;;;;;34.54;nan;95136.06;5089832;28;20773;-67
2023/07/24 10:23:42;;;;;;;13.68;10.30;;;;;;;34.26;nan;95123.72;5089983;28;20637;-68
2023/07/24 10:26:09;;;;;;;16.40;10.77;;;;;;;34.15;nan;95120.84;5089959;28;20259;-66
2023/07/24 10:28:38;;;;;;;14.63;10.70;;;;;;;34.13;nan;95124.50;5090420;28;20287;-67
2023/07/24 10:31:08;;;;;;;16.67;11.60;;;;;;;34.15;nan;95121.66;5093449;28;20714;-67
2023/07/24 10:33:38;;;;;;;20.65;10.75;;;;;;;34.09;nan;95127.72;5094327;28;20198;-68
2023/07/24 10:36:07;;;;;;;16.70;11.30;;;;;;;33.89;nan;95116.22;5093632;28;20232;-67
2023/07/24 10:38:36;;;;;;;19.25;11.57;;;;;;;33.86;nan;95111.34;5093135;28;20229;-69
2023/07/24 10:41:04;;;;;;;16.13;10.18;;;;;;;33.67;nan;95113.59;5093342;28;20229;-68
2023/07/24 10:43:41;;;;;;;21.80;10.30;;;;;;;33.38;nan;95116.44;5094058;28;20270;-68
2023/07/24 10:46:09;;;;;;;16.17;9.73;;;;;;;;;;5093338;28;20591;-68
2023/07/24 10:48:36;;;;;;;15.35;9.30;;;;;;;33.24;nan;95097.03;5093712;28;20249;-67
2023/07/24 10:51:08;;;;;;;14.70;9.07;;;;;;;;;;5093179;28;20735;-67
2023/07/24 10:53:36;;;;;;;16.40;9.35;;;;;;;33.44;nan;95097.22;5093501;28;20670;-68
2023/07/24 10:56:02;;;;;;;10.40;9.02;;;;;;;;;;5091475;28;20740;-67
2023/07/24 10:58:29;;;;;;;12.32;10.20;;;;;;;;;;5093185;28;20760;-66
2023/07/24 11:00:57;;;;;;;17.80;9.77;;;;;;;;;;5090387;28;20716;-67
2023/07/24 11:03:25;;;;;;;12.20;9.77;;;;;;;;;;5091810;28;20278;-67
2023/07/24 11:05:52;;;;;;;22.65;8.88;;;;;;;;;;5091170;28;20290;-68
2023/07/24 11:08:20;;;;;;;15.02;10.23;;;;;;;;;;5091476;28;20208;-67
2023/07/24 11:10:48;;;;;;;11.75;9.73;;;;;;;33.54;nan;95044.19;5091328;28;20237;-67
2023/07/24 11:13:14;;;;;;;13.65;8.63;;;;;;;;;;5091029;28;20194;-68
2023/07/24 11:15:41;;;;;;;13.75;8.82;;;;;;;33.43;nan;95070.06;5091531;28;20209;-67
2023/07/24 11:18:08;;;;;;;12.90;9.65;;;;;;;;;;5092127;28;20258;-70
2023/07/24 11:20:38;;;;;;;16.05;9.68;;;;;;;33.51;nan;95060.38;5092973;28;20209;-67
2023/07/24 11:23:05;;;;;;;14.48;9.45;;;;;;;33.44;nan;95060.34;5092642;28;20194;-68
2023/07/24 11:25:32;;;;;;;15.40;9.68;;;;;;;33.25;nan;95060.97;5093191;28;20205;-67
2023/07/24 11:27:59;;;;;;;11.38;8.82;;;;;;;;;;5092289;28;20655;-68
2023/07/24 11:30:25;;;;;;;17.55;9.23;;;;;;;;;;5093077;28;20208;-68
2023/07/24 11:32:53;;;;;;;11.05;8.93;;;;;;;32.89;nan;95025.06;5092656;28;20225;-68
2023/07/24 11:35:21;;;;;;;10.88;8.05;;;;;;;33.18;nan;95054.84;5092696;28;20205;-67
2023/07/24 11:37:49;;;;;;;15.27;9.25;;;;;;;33.35;nan;95062.31;5092138;28;20202;-68
2023/07/24 11:40:16;;;;;;;8.80;7.90;;;;;;;33.43;nan;95053.44;5092178;28;20233;-67
2023/07/24 11:42:44;;;;;;;13.15;9.00;;;;;;;33.43;nan;95048.16;5092244;28;20630;-67
2023/07/24 11:45:11;;;;;;;13.52;9.10;;;;;;;33.43;nan;95042.91;5093213;28;20198;-67
2023/07/24 11:47:47;;;;;;;10.25;9.25;;;;;;;;;;5093233;28;20205;-66
2023/07/24 11:50:14;;;;;;;11.45;9.50;;;;;;;33.51;nan;94997.16;5092929;28;20236;-67
2023/07/24 11:52:44;;;;;;;11.25;8.40;;;;;;;33.47;nan;95034.41;5093335;28;20274;-66
2023/07/24 11:55:12;;;;;;;9.23;8.32;;;;;;;33.37;nan;95038.41;5092070;28;20292;-66
2023/07/24 11:57:40;;;;;;;9.18;8.32;;;;;;;33.40;nan;95040.66;5092108;28;20286;-67
2023/07/24 12:00:09;;;;;;;9.48;8.55;;;;;;;;;;5092135;28;20741;-67
2023/07/24 12:02:36;;;;;;;9.85;8.85;;;;;;;;;;5092160;28;20220;-67
2023/07/24 12:05:03;;;;;;;17.00;9.70;;;;;;;33.50;nan;95027.13;5093294;28;20258;-68
2023/07/24 12:07:31;;;;;;;9.88;8.77;;;;;;;;;;5092309;28;20205;-67
2023/07/24 12:09:57;;;;;;;14.38;8.82;;;;;;;;;;5093445;28;20270;-66
2023/07/24 12:12:25;;;;;;;14.82;9.52;;;;;;;;;;5092744;28;20558;-66
2023/07/24 12:14:51;;;;;;;10.60;8.48;;;;;;;;;;5093200;28;20206;-65
2023/07/24 12:17:19;;;;;;;9.57;8.48;;;;;;;33.12;nan;95024.81;5080550;28;20520;-66
2023/07/24 12:19:46;;;;;;;10.88;9.05;;;;;;;;;;5092258;28;20206;-66
2023/07/24 12:22:12;;;;;;;15.38;9.48;;;;;;;;;;5099312;28;20224;-66
2023/07/24 12:24:39;;;;;;;12.52;9.00;;;;;;;33.34;nan;95023.00;5096627;28;20656;-67
2023/07/24 12:27:05;;;;;;;9.82;8.68;;;;;;;;;;5091923;28;20207;-68
2023/07/24 12:29:33;;;;;;;12.25;8.07;;;;;;;;;;5091760;28;20254;-67
2023/07/24 12:32:00;;;;;;;12.80;8.88;;;;;;;33.72;nan;95005.78;5091329;28;20249;-68
2023/07/24 12:34:27;;;;;;;9.50;8.40;;;;;;;33.79;nan;94990.03;5091424;28;20206;-67
2023/07/24 12:36:54;;;;;;;10.32;8.90;;;;;;;33.78;nan;95004.22;5091299;28;20654;-67
2023/07/24 12:39:21;;;;;;;10.20;8.73;;;;;;;33.82;nan;95005.47;5091844;28;20234;-68
2023/07/24 12:41:47;;;;;;;11.00;8.80;;;;;;;33.76;nan;94999.13;5091675;28;20194;-68
2023/07/24 12:44:14;;;;;;;10.75;8.95;;;;;;;33.75;nan;95002.75;5091608;28;20266;-67
2023/07/24 12:46:42;;;;;;;11.95;9.00;;;;;;;;;;5091551;28;20263;-67
2023/07/24 12:49:09;;;;;;;9.15;8.15;;;;;;;;;;5091898;28;20235;-67
2023/07/24 12:51:36;;;;;;;10.52;9.07;;;;;;;33.43;nan;95000.75;5089302;28;20282;-68
2023/07/24 12:54:03;;;;;;;8.40;7.53;;;;;;;33.29;nan;94999.84;5091016;28;20214;-67
2023/07/24 12:56:29;;;;;;;16.10;9.18;;;;;;;;;;5091341;28;20263;-64
2023/07/24 12:58:56;;;;;;;9.52;8.55;;;;;;;33.20;nan;94984.34;5091946;28;20225;-67
2023/07/24 13:01:23;;;;;;;10.50;8.10;;;;;;;33.10;nan;94989.97;5099623;28;20658;-66
2023/07/24 13:03:52;;;;;;;10.27;8.70;;;;;;;33.15;nan;94987.59;5089339;28;20197;-66
2023/07/24 13:06:18;;;;;;;9.35;8.45;;;;;;;;;;5089608;28;20255;-67
2023/07/24 13:08:44;;;;;;;11.05;8.80;;;;;;;;;;5088914;28;20201;-67
2023/07/24 13:11:11;;;;;;;11.93;9.25;;;;;;;32.91;nan;94969.56;5089202;28;20596;-67
2023/07/24 13:13:38;;;;;;;11.75;9.02;;;;;;;;;;5089666;28;20224;-67
2023/07/24 13:16:04;;;;;;;9.75;8.68;;;;;;;;;;5089074;28;20209;-68
2023/07/24 13:18:31;;;;;;;9.73;8.20;;;;;;;;;;5089127;28;20246;-69
2023/07/24 13:20:59;;;;;;;10.05;9.05;;;;;;;;;;5089379;28;20320;-67
2023/07/24 13:23:25;;;;;;;12.43;9.95;;;;;;;;;;5089833;28;20680;-68
2023/07/24 13:25:53;;;;;;;11.48;8.70;;;;;;;32.70;nan;94973.81;5089829;28;20201;-67